EmailTwitter


Observations de surface / Royaume-Uni / EGLL (03772)

Régions: Québec | Canada | États-Unis | Europe | France | UK | Elsewhere
Station
Affichage
Infos & localisation pour EGLL (03772) | Aide pour décoder les METARs

Observations prises le 2017-05-28 à 19H50 UTC à LONDON/HEATHROW, UK (EGLL)

Etat du ciel: couvert.

Température: 19.0 Celsius

Point de rosée: 15.0 Celsius

Humidité relative: 78%

Indice Humidex: 23.

Vents: Est à 9 km/h ou 5 noeuds.

Pression au niveau moyen de la mer: 101.60 kilopascals.

Visibilité horizontale: 6.21 milles terrestres ou 9.94 kilomètres.

Hauteur du plafond: 1067 mètres ( 3500 pieds ).

Observation METAR:

EGLL 281950Z AUTO 08005KT 9999 OVC035 19/15 Q1016 NOSIG=